Time;durP1;ratioP1;P1;durP2;ratioP2;P2;SDS_P1;SDS_P2;PMS_P1;PMS_P2;Temp;Humidity;BMP_temperature;BMP_pressure;BME280_temperature;BME280_humidity;BME280_pressure;Samples;Min_cycle;Max_cycle;Signal;HPM_P1;HPM_P2
2022/06/09 00:02:23;;;;;;;1.20;1.10;;;19.20;99.90;;;;;;5115776;28;20101;-62
2022/06/09 00:04:49;;;;;;;1.45;0.98;;;19.20;99.90;;;;;;5116110;28;20027;-61
2022/06/09 00:07:21;;;;;;;1.42;1.00;;;19.10;99.90;;;;;;5115840;28;20107;-60
2022/06/09 00:10:07;;;;;;;1.50;1.00;;;19.10;99.90;;;;;;5116066;28;20096;-61
2022/06/09 00:12:33;;;;;;;1.08;0.90;;;19.20;99.90;;;;;;5115980;28;20461;-59
2022/06/09 00:15:01;;;;;;;0.88;0.80;;;19.20;99.90;;;;;;5115945;28;20111;-61
2022/06/09 00:17:26;;;;;;;3.58;1.40;;;19.20;99.90;;;;;;5097659;28;20362;-59
2022/06/09 00:19:52;;;;;;;1.70;1.33;;;19.20;99.90;;;;;;5115797;28;20110;-58
2022/06/09 00:22:18;;;;;;;2.72;1.90;;;19.20;99.90;;;;;;5115682;28;20062;-59
2022/06/09 00:24:44;;;;;;;2.45;1.50;;;19.10;99.90;;;;;;5115858;28;20020;-60
2022/06/09 00:27:10;;;;;;;2.10;1.83;;;18.90;99.90;;;;;;5115735;28;20032;-58
2022/06/09 00:29:36;;;;;;;4.78;2.08;;;18.80;99.90;;;;;;5115699;28;20085;-59
2022/06/09 00:32:02;;;;;;;1.30;1.20;;;18.60;99.90;;;;;;5115717;28;20023;-59
2022/06/09 00:34:27;;;;;;;4.10;1.70;;;18.50;99.90;;;;;;5115677;28;20047;-61
2022/06/09 00:36:53;;;;;;;5.10;2.00;;;18.50;99.90;;;;;;5115185;28;20452;-58
2022/06/09 00:39:19;;;;;;;2.20;1.90;;;18.50;99.90;;;;;;5115571;28;20080;-62
2022/06/09 00:41:45;;;;;;;2.53;1.73;;;18.40;99.90;;;;;;5115496;28;20116;-60
2022/06/09 00:44:19;;;;;;;2.40;1.73;;;18.40;99.90;;;;;;5115331;28;20035;-60
2022/06/09 00:46:48;;;;;;;1.98;1.20;;;18.50;99.90;;;;;;5115337;28;20023;-57
2022/06/09 00:49:24;;;;;;;2.08;1.15;;;18.50;99.90;;;;;;5115201;28;20027;-62
2022/06/09 00:51:57;;;;;;;1.35;1.10;;;18.70;99.90;;;;;;5115019;28;20470;-60
2022/06/09 00:54:37;;;;;;;0.95;0.82;;;18.70;99.90;;;;;;5115235;28;20024;-62
2022/06/09 00:57:11;;;;;;;1.80;1.10;;;18.80;99.90;;;;;;5115140;28;20044;-61
2022/06/09 00:59:40;;;;;;;0.85;0.80;;;18.80;99.90;;;;;;5115039;28;20032;-60
2022/06/09 01:02:09;;;;;;;1.70;1.02;;;18.80;99.90;;;;;;5114945;28;20038;-58
2022/06/09 01:04:35;;;;;;;0.98;0.90;;;18.80;99.90;;;;;;5114949;28;20027;-63
2022/06/09 01:07:11;;;;;;;1.17;1.08;;;18.80;99.90;;;;;;5114975;28;20034;-60
2022/06/09 01:09:37;;;;;;;1.50;1.00;;;18.90;99.90;;;;;;5115067;28;20072;-58
2022/06/09 01:12:23;;;;;;;1.05;0.70;;;18.70;99.90;;;;;;5114803;28;20019;-61
2022/06/09 01:14:49;;;;;;;1.83;0.82;;;18.70;99.90;;;;;;5114995;28;20024;-59
2022/06/09 01:17:29;;;;;;;1.05;0.80;;;18.70;99.90;;;;;;5114722;28;20428;-61
2022/06/09 01:20:14;;;;;;;1.23;0.85;;;18.70;99.90;;;;;;5114688;28;20035;-61
2022/06/09 01:23:05;;;;;;;0.65;0.60;;;18.70;99.90;;;;;;5114628;28;20030;-55
2022/06/09 01:25:47;;;;;;;0.80;0.80;;;18.70;99.90;;;;;;5114577;28;20024;-56
2022/06/09 01:28:46;;;;;;;0.55;0.55;;;18.80;99.90;;;;;;5114355;28;20482;-63
2022/06/09 01:31:30;;;;;;;1.38;1.00;;;18.80;99.90;;;;;;5114476;28;20107;-62
2022/06/09 01:34:10;;;;;;;0.73;0.65;;;18.90;99.90;;;;;;5114197;28;20011;-64
2022/06/09 01:36:57;;;;;;;1.77;0.90;;;18.90;99.90;;;;;;5114207;28;20023;-62
2022/06/09 01:39:42;;;;;;;1.33;0.60;;;18.90;99.90;;;;;;5114360;28;20524;-56
2022/06/09 01:42:30;;;;;;;1.33;0.82;;;18.80;99.90;;;;;;5114454;28;20044;-62
2022/06/09 01:45:16;;;;;;;0.73;0.60;;;18.90;99.90;;;;;;5114280;28;20027;-61
2022/06/09 01:48:03;;;;;;;0.70;0.57;;;18.90;99.90;;;;;;5114111;28;20024;-60
2022/06/09 01:50:42;;;;;;;1.17;0.70;;;19.00;99.90;;;;;;5113843;28;20477;-61
2022/06/09 01:53:13;;;;;;;0.50;0.40;;;18.90;99.90;;;;;;5114254;28;20024;-59
2022/06/09 01:55:45;;;;;;;0.32;0.32;;;19.00;99.90;;;;;;5114131;28;20023;-59
2022/06/09 01:58:15;;;;;;;1.40;0.52;;;19.00;99.90;;;;;;5114004;28;20059;-61
2022/06/09 02:00:42;;;;;;;0.68;0.60;;;19.00;99.90;;;;;;5114013;28;20028;-58
2022/06/09 02:03:13;;;;;;;0.70;0.70;;;19.00;99.90;;;;;;5113970;28;20020;-60
2022/06/09 02:05:46;;;;;;;0.80;0.60;;;19.00;99.90;;;;;;5114326;28;20404;-63
2022/06/09 02:08:15;;;;;;;2.10;0.40;;;19.00;99.90;;;;;;5114081;28;20110;-58
2022/06/09 02:10:46;;;;;;;0.50;0.50;;;19.00;99.90;;;;;;5114129;28;20069;-62
2022/06/09 02:13:19;;;;;;;1.17;0.63;;;19.00;99.90;;;;;;5113895;28;20377;-61
2022/06/09 02:15:54;;;;;;;0.60;0.50;;;19.00;99.90;;;;;;5114004;28;20034;-63
2022/06/09 02:18:23;;;;;;;1.13;0.70;;;19.00;99.90;;;;;;5113547;28;20045;-60
2022/06/09 02:20:58;;;;;;;1.17;0.50;;;19.00;99.90;;;;;;5113963;28;20028;-62
2022/06/09 02:23:24;;;;;;;1.20;0.50;;;19.00;99.90;;;;;;5113481;28;20050;-59
2022/06/09 02:25:50;;;;;;;0.52;0.50;;;19.00;99.90;;;;;;5113617;28;20028;-59
2022/06/09 02:28:16;;;;;;;1.05;0.70;;;19.00;99.90;;;;;;5113794;28;20038;-60
2022/06/09 02:30:42;;;;;;;1.67;0.80;;;19.00;99.90;;;;;;5113635;28;20023;-58
2022/06/09 02:33:08;;;;;;;1.60;0.57;;;19.00;99.90;;;;;;5113387;28;20477;-60
2022/06/09 02:35:34;;;;;;;2.55;0.80;;;18.90;99.90;;;;;;5113735;28;20023;-62
2022/06/09 02:38:00;;;;;;;1.08;0.63;;;18.80;99.90;;;;;;5113736;28;20027;-60
2022/06/09 02:40:30;;;;;;;1.00;0.70;;;18.80;99.90;;;;;;5113592;28;20027;-59
2022/06/09 02:42:56;;;;;;;1.55;0.65;;;18.70;99.90;;;;;;5113744;28;20028;-57
2022/06/09 02:45:22;;;;;;;0.60;0.60;;;18.70;99.90;;;;;;5113812;28;20055;-58
2022/06/09 02:47:48;;;;;;;1.13;0.60;;;18.60;99.90;;;;;;5113188;28;20493;-63
2022/06/09 02:50:15;;;;;;;1.52;0.65;;;18.60;99.90;;;;;;5113864;28;20427;-62
2022/06/09 02:52:41;;;;;;;1.98;1.00;;;18.60;99.90;;;;;;5113403;28;20470;-59
2022/06/09 02:55:09;;;;;;;0.43;0.43;;;18.70;99.90;;;;;;5113722;28;20102;-61
2022/06/09 02:57:35;;;;;;;0.50;0.50;;;18.60;99.90;;;;;;5113253;28;20050;-61
2022/06/09 03:00:01;;;;;;;0.60;0.47;;;18.70;99.90;;;;;;5113355;28;20407;-56
2022/06/09 03:02:27;;;;;;;0.85;0.60;;;18.70;99.90;;;;;;5113374;28;20111;-56
2022/06/09 03:04:52;;;;;;;1.40;0.77;;;18.80;99.90;;;;;;5113317;28;20084;-61
2022/06/09 03:07:18;;;;;;;1.20;0.63;;;18.80;99.90;;;;;;5113182;28;20065;-59
2022/06/09 03:09:43;;;;;;;1.58;0.70;;;18.80;99.90;;;;;;5113251;28;20035;-59
2022/06/09 03:12:09;;;;;;;1.45;0.80;;;18.80;99.90;;;;;;5113558;28;20031;-61
2022/06/09 03:14:35;;;;;;;0.73;0.73;;;18.80;99.90;;;;;;5113180;28;20030;-60
2022/06/09 03:17:01;;;;;;;0.85;0.65;;;18.70;99.90;;;;;;5113177;28;20107;-61
2022/06/09 03:19:27;;;;;;;0.77;0.70;;;18.80;99.90;;;;;;5113475;28;20110;-58
2022/06/09 03:21:53;;;;;;;0.60;0.50;;;18.70;99.90;;;;;;5113365;28;20462;-60
2022/06/09 03:24:18;;;;;;;0.80;0.60;;;18.70;99.90;;;;;;5113310;28;20451;-60
2022/06/09 03:26:44;;;;;;;0.90;0.70;;;18.80;99.90;;;;;;5113344;28;20102;-61
2022/06/09 03:29:10;;;;;;;1.10;0.60;;;18.80;99.90;;;;;;5113342;28;20470;-62
2022/06/09 03:31:36;;;;;;;0.80;0.70;;;18.80;99.90;;;;;;5112713;28;20020;-60
2022/06/09 03:34:02;;;;;;;0.80;0.70;;;18.90;99.90;;;;;;5113111;28;20019;-61
2022/06/09 03:36:31;;;;;;;0.82;0.70;;;18.80;99.90;;;;;;5114618;28;20019;-62
2022/06/09 03:38:58;;;;;;;2.17;0.55;;;18.80;99.90;;;;;;5116511;28;20058;-62
2022/06/09 03:41:24;;;;;;;0.50;0.50;;;18.80;99.90;;;;;;5116930;28;20024;-60
2022/06/09 03:43:49;;;;;;;0.90;0.77;;;18.80;99.90;;;;;;5116803;28;20072;-60
2022/06/09 03:46:15;;;;;;;2.03;0.60;;;18.80;99.90;;;;;;5116293;28;20035;-55
2022/06/09 03:48:41;;;;;;;0.70;0.60;;;18.80;99.90;;;;;;5116401;28;20027;-62
2022/06/09 03:51:07;;;;;;;0.60;0.60;;;18.80;99.90;;;;;;5116409;28;20023;-57
2022/06/09 03:53:32;;;;;;;1.00;0.68;;;18.80;99.90;;;;;;5116291;28;20031;-58
2022/06/09 03:55:58;;;;;;;1.58;0.90;;;18.80;99.90;;;;;;5116451;28;20114;-55
2022/06/09 03:58:24;;;;;;;2.15;0.80;;;18.80;99.90;;;;;;5116402;28;20032;-62
2022/06/09 04:00:50;;;;;;;0.60;0.60;;;18.80;99.90;;;;;;5116061;28;20027;-61
2022/06/09 04:03:15;;;;;;;1.90;1.10;;;18.80;99.90;;;;;;5116177;28;20030;-62
2022/06/09 04:05:41;;;;;;;0.70;0.70;;;18.80;99.90;;;;;;5116373;28;20042;-58
2022/06/09 04:08:11;;;;;;;1.40;1.17;;;18.80;99.90;;;;;;5116026;28;20019;-61
2022/06/09 04:10:37;;;;;;;1.42;0.93;;;18.80;99.90;;;;;;5116087;28;20022;-62
2022/06/09 04:13:02;;;;;;;0.80;0.70;;;18.70;99.90;;;;;;5116089;28;20019;-62
2022/06/09 04:15:28;;;;;;;1.45;0.80;;;18.80;99.90;;;;;;5115783;28;20428;-62
2022/06/09 04:17:54;;;;;;;1.85;0.93;;;18.80;99.90;;;;;;5115869;28;20034;-60
2022/06/09 04:20:23;;;;;;;1.25;0.95;;;18.80;99.90;;;;;;5115883;28;20027;-63
2022/06/09 04:22:49;;;;;;;1.10;1.00;;;18.90;99.90;;;;;;5116094;28;20028;-62
2022/06/09 04:25:15;;;;;;;3.25;1.30;;;18.90;99.90;;;;;;5115950;28;20470;-58
2022/06/09 04:27:41;;;;;;;1.90;1.10;;;18.80;99.90;;;;;;5115630;28;20055;-61
2022/06/09 04:30:07;;;;;;;2.25;1.05;;;18.70;99.90;;;;;;5115772;28;20047;-61
2022/06/09 04:32:33;;;;;;;1.25;0.90;;;18.80;99.90;;;;;;5115558;28;20099;-60
2022/06/09 04:34:59;;;;;;;2.03;0.80;;;18.90;99.90;;;;;;5115700;28;20512;-54
2022/06/09 04:37:59;;;;;;;0.70;0.70;;;19.00;99.90;;;;;;5115549;28;20024;-63
2022/06/09 04:40:11;;;;;;;1.42;0.90;;;19.10;99.90;;;;;;5115368;28;20024;-63
2022/06/09 04:42:36;;;;;;;0.82;0.82;;;19.20;99.90;;;;;;5115543;28;20080;-59
2022/06/09 04:45:03;;;;;;;0.80;0.68;;;19.20;99.90;;;;;;5115130;28;20106;-60
2022/06/09 04:47:29;;;;;;;0.95;0.70;;;19.20;99.90;;;;;;5120235;27;20019;-63
2022/06/09 04:49:54;;;;;;;0.70;0.70;;;19.30;99.90;;;;;;5134622;27;20037;-60
2022/06/09 04:52:20;;;;;;;0.50;0.50;;;19.30;99.90;;;;;;5134408;27;20033;-61
2022/06/09 04:54:46;;;;;;;0.60;0.60;;;19.40;99.90;;;;;;5134711;27;20031;-61
2022/06/09 04:57:11;;;;;;;0.50;0.50;;;19.50;99.90;;;;;;5128282;27;20118;-61
2022/06/09 04:59:37;;;;;;;1.73;1.15;;;19.60;99.90;;;;;;5129946;27;20104;-59
2022/06/09 05:02:03;;;;;;;1.73;0.80;;;19.70;99.90;;;;;;5128322;27;20019;-61
2022/06/09 05:04:29;;;;;;;4.88;1.60;;;19.70;99.90;;;;;;5128422;27;20031;-62
2022/06/09 05:06:54;;;;;;;1.10;1.00;;;19.80;99.90;;;;;;5133015;27;20019;-61
2022/06/09 05:09:20;;;;;;;1.20;1.10;;;19.70;99.90;;;;;;5134980;27;20020;-60
2022/06/09 05:11:46;;;;;;;1.95;0.90;;;19.80;99.90;;;;;;5132667;27;20034;-63
2022/06/09 05:14:13;;;;;;;1.02;0.85;;;19.90;99.90;;;;;;5131806;27;20466;-64
2022/06/09 05:16:38;;;;;;;1.02;0.90;;;20.10;99.90;;;;;;5127245;27;20035;-61
2022/06/09 05:19:04;;;;;;;0.70;0.70;;;20.20;99.90;;;;;;5128912;27;20027;-62
2022/06/09 05:21:30;;;;;;;2.60;0.80;;;20.40;99.90;;;;;;5128661;27;20051;-61
2022/06/09 05:23:55;;;;;;;0.80;0.70;;;20.50;99.90;;;;;;5130329;27;20031;-63
2022/06/09 05:26:21;;;;;;;1.30;0.93;;;20.70;99.90;;;;;;5130961;27;20023;-60
2022/06/09 05:28:47;;;;;;;0.75;0.75;;;20.70;99.90;;;;;;5122432;27;20031;-63
2022/06/09 05:31:13;;;;;;;1.92;0.90;;;20.70;99.90;;;;;;5128298;27;20036;-63
2022/06/09 05:33:39;;;;;;;0.80;0.68;;;20.70;99.90;;;;;;5123241;27;20613;-58
2022/06/09 05:36:05;;;;;;;0.75;0.70;;;20.80;99.90;;;;;;5113083;28;20059;-58
2022/06/09 05:46:45;;;;;;;0.90;0.70;;;20.70;99.90;;;;;;5112103;27;20077;-53
2022/06/09 05:49:11;;;;;;;1.42;1.13;;;20.70;99.90;;;;;;5110558;28;20117;-58
2022/06/09 05:51:52;;;;;;;2.33;1.20;;;20.70;99.90;;;;;;5113588;27;20491;-61
2022/06/09 05:54:18;;;;;;;1.33;0.82;;;20.70;99.90;;;;;;5116691;27;20019;-58
2022/06/09 05:56:44;;;;;;;1.00;0.90;;;20.70;99.90;;;;;;5129528;27;20043;-56
2022/06/09 05:59:10;;;;;;;0.88;0.70;;;20.80;99.90;;;;;;5133644;27;20030;-54
2022/06/09 06:01:36;;;;;;;0.73;0.73;;;20.90;99.90;;;;;;5132078;27;20028;-59
2022/06/09 06:04:07;;;;;;;0.52;0.52;;;21.00;99.90;;;;;;5120399;27;20031;-60
2022/06/09 06:06:35;;;;;;;0.88;0.80;;;21.10;99.90;;;;;;5115084;27;20111;-59
2022/06/09 06:09:08;;;;;;;0.68;0.60;;;21.10;99.90;;;;;;5113420;27;20118;-57
2022/06/09 06:11:36;;;;;;;2.47;0.90;;;21.20;99.90;;;;;;5116291;27;20162;-60
2022/06/09 06:14:03;;;;;;;0.77;0.70;;;21.10;99.90;;;;;;5124983;27;20477;-56
2022/06/09 06:16:29;;;;;;;0.70;0.60;;;21.10;99.90;;;;;;5132864;27;20469;-56
2022/06/09 06:18:55;;;;;;;0.60;0.60;;;21.10;99.90;;;;;;5126851;27;20118;-59
2022/06/09 06:21:22;;;;;;;1.08;0.63;;;21.10;99.90;;;;;;5128731;28;20035;-54
2022/06/09 06:23:48;;;;;;;0.98;0.80;;;21.30;99.90;;;;;;5128206;28;20481;-59
2022/06/09 06:26:17;;;;;;;1.30;0.60;;;21.30;99.90;;;;;;5128774;28;20023;-57
2022/06/09 06:28:43;;;;;;;1.15;0.60;;;21.30;99.90;;;;;;5125891;28;20091;-58
2022/06/09 06:31:09;;;;;;;0.60;0.60;;;21.40;99.90;;;;;;5126395;28;20419;-59
2022/06/09 06:33:35;;;;;;;0.77;0.73;;;21.50;99.90;;;;;;5132787;28;20064;-60
2022/06/09 06:36:00;;;;;;;1.90;0.82;;;21.60;99.90;;;;;;5109061;28;20015;-59
2022/06/09 06:38:26;;;;;;;1.50;1.08;;;21.60;99.90;;;;;;5125777;28;20042;-58
2022/06/09 06:41:10;;;;;;;1.17;1.08;;;21.70;99.90;;;;;;5118265;27;20035;-65
2022/06/09 06:43:47;;;;;;;2.20;1.30;;;21.90;99.90;;;;;;5094871;28;20027;-71
2022/06/09 06:46:14;;;;;;;1.60;1.50;;;22.00;99.90;;;;;;5111408;28;20050;-70
2022/06/09 06:48:40;;;;;;;2.10;1.38;;;21.90;99.90;;;;;;5120222;28;20147;-64
2022/06/09 06:51:06;;;;;;;2.35;1.55;;;22.00;99.90;;;;;;5109322;27;20050;-68
2022/06/09 06:53:33;;;;;;;1.98;1.30;;;22.00;99.90;;;;;;5129754;28;20113;-60
2022/06/09 06:56:13;;;;;;;2.05;1.50;;;22.00;99.90;;;;;;5124985;27;20493;-65
2022/06/09 06:58:39;;;;;;;1.70;1.10;;;22.10;99.90;;;;;;5108085;27;20394;-61
2022/06/09 07:01:05;;;;;;;1.80;1.27;;;22.30;99.90;;;;;;5113899;28;20027;-65
2022/06/09 07:03:31;;;;;;;1.52;1.42;;;22.40;99.90;;;;;;5131631;27;20023;-66
2022/06/09 07:05:56;;;;;;;4.20;1.20;;;22.50;99.90;;;;;;5121167;27;20035;-69
2022/06/09 07:08:24;;;;;;;2.50;1.20;;;22.60;99.90;;;;;;5099694;28;20024;-66
2022/06/09 07:10:51;;;;;;;2.92;1.45;;;22.70;99.90;;;;;;5111060;28;20107;-63
2022/06/09 07:13:17;;;;;;;1.75;1.00;;;22.70;99.90;;;;;;5112159;28;20012;-62
2022/06/09 07:15:43;;;;;;;1.08;0.98;;;22.70;99.90;;;;;;5127982;27;20030;-59
2022/06/09 07:18:09;;;;;;;1.48;1.00;;;22.70;99.90;;;;;;5133107;27;20472;-67
2022/06/09 07:20:36;;;;;;;2.10;1.55;;;22.80;99.90;;;;;;5134490;27;20163;-65
2022/06/09 07:23:02;;;;;;;2.40;1.85;;;22.90;99.90;;;;;;5130121;27;20027;-61
2022/06/09 07:25:28;;;;;;;3.00;2.03;;;22.90;99.90;;;;;;5131861;27;20027;-70
2022/06/09 07:27:55;;;;;;;2.47;1.67;;;22.80;99.90;;;;;;5132947;27;20034;-64
2022/06/09 07:30:23;;;;;;;1.73;1.63;;;22.70;99.90;;;;;;5116678;27;20102;-68
2022/06/09 07:32:49;;;;;;;1.55;1.33;;;22.70;99.90;;;;;;5135075;27;20075;-61
2022/06/09 07:35:18;;;;;;;1.75;1.40;;;22.70;99.90;;;;;;5134318;27;20023;-65
2022/06/09 07:37:44;;;;;;;1.35;1.10;;;22.80;99.90;;;;;;5135736;27;20468;-66
2022/06/09 07:40:11;;;;;;;1.40;0.98;;;23.00;99.90;;;;;;5135464;27;20113;-64
2022/06/09 07:42:38;;;;;;;1.95;1.30;;;23.20;99.90;;;;;;5134989;27;20049;-65
2022/06/09 07:45:06;;;;;;;2.10;1.20;;;23.40;99.90;;;;;;5135093;27;20044;-61
2022/06/09 07:47:32;;;;;;;1.90;1.13;;;23.40;99.90;;;;;;5135778;27;20508;-65
2022/06/09 07:49:58;;;;;;;2.40;0.95;;;23.40;99.90;;;;;;5133160;27;20078;-64
2022/06/09 07:52:24;;;;;;;2.30;1.00;;;23.50;99.90;;;;;;5130870;27;20030;-63
2022/06/09 07:54:50;;;;;;;1.52;1.10;;;23.30;99.90;;;;;;5130677;27;20023;-62
2022/06/09 07:57:15;;;;;;;2.30;1.02;;;23.30;99.90;;;;;;5130133;27;20043;-62
2022/06/09 07:59:41;;;;;;;1.90;0.80;;;23.20;99.90;;;;;;5128353;27;20064;-62
2022/06/09 08:02:07;;;;;;;1.45;1.00;;;23.30;99.90;;;;;;5126261;27;20026;-63
2022/06/09 08:04:33;;;;;;;1.42;0.80;;;23.60;99.90;;;;;;5107590;27;20381;-63
2022/06/09 08:06:59;;;;;;;1.08;0.98;;;23.90;99.90;;;;;;5110515;27;20046;-60
2022/06/09 08:09:25;;;;;;;1.23;0.98;;;24.10;99.90;;;;;;5098000;27;20054;-61
2022/06/09 08:11:51;;;;;;;1.98;1.75;;;24.10;99.90;;;;;;5114638;27;20023;-61
2022/06/09 08:14:17;;;;;;;1.42;1.33;;;24.20;99.90;;;;;;5116420;27;20023;-61
2022/06/09 08:16:43;;;;;;;1.80;1.30;;;24.00;99.90;;;;;;5137646;27;20370;-61
2022/06/09 08:19:09;;;;;;;4.03;1.67;;;23.90;99.90;;;;;;5153578;27;20019;-60
2022/06/09 08:21:35;;;;;;;2.92;1.40;;;23.80;99.90;;;;;;5117400;27;20031;-59
2022/06/09 08:24:03;;;;;;;5.63;1.80;;;23.80;99.90;;;;;;5133205;27;20381;-61
2022/06/09 08:26:29;;;;;;;2.80;1.33;;;23.90;99.90;;;;;;5132301;27;20073;-59
2022/06/09 08:28:55;;;;;;;2.75;1.40;;;23.90;99.90;;;;;;5124948;27;20520;-60
2022/06/09 08:31:21;;;;;;;1.42;1.00;;;24.00;99.90;;;;;;5112242;27;20792;-60
2022/06/09 08:33:46;;;;;;;1.30;1.20;;;24.10;99.90;;;;;;5118560;27;20035;-60
2022/06/09 08:36:12;;;;;;;2.60;1.00;;;24.40;99.90;;;;;;5122798;27;20015;-66
2022/06/09 08:38:40;;;;;;;2.33;1.23;;;24.80;99.90;;;;;;5111360;27;20035;-62
2022/06/09 08:41:30;;;;;;;1.63;1.23;;;25.30;99.90;;;;;;5134767;27;20031;-62
2022/06/09 08:44:07;;;;;;;1.50;1.17;;;25.70;99.90;;;;;;5133333;27;20042;-59
2022/06/09 08:46:49;;;;;;;1.83;1.13;;;25.90;99.40;;;;;;5134280;27;20034;-66
2022/06/09 08:49:33;;;;;;;1.85;1.30;;;26.20;98.90;;;;;;5124899;27;20039;-59
2022/06/09 08:52:04;;;;;;;2.22;1.65;;;27.10;95.20;;;;;;5124654;27;20024;-60
2022/06/09 08:54:35;;;;;;;2.28;1.40;;;27.90;93.30;;;;;;5114119;28;20016;-63
2022/06/09 08:57:11;;;;;;;1.60;1.42;;;28.10;93.20;;;;;;5113780;28;20040;-62
2022/06/09 08:59:38;;;;;;;1.33;1.02;;;28.30;91.90;;;;;;5112819;28;20031;-61
2022/06/09 09:02:36;;;;;;;1.40;1.25;;;28.40;89.80;;;;;;5112422;28;20031;-63
2022/06/09 09:05:37;;;;;;;3.00;1.60;;;28.70;87.50;;;;;;5114584;27;20028;-64
2022/06/09 09:08:06;;;;;;;2.80;1.48;;;29.00;86.60;;;;;;5114554;27;20035;-60
2022/06/09 09:11:13;;;;;;;1.42;1.30;;;29.80;81.40;;;;;;5131617;27;20011;-64
2022/06/09 09:13:59;;;;;;;1.83;1.35;;;30.00;78.20;;;;;;5079647;27;20477;-62
2022/06/09 09:16:46;;;;;;;1.30;1.20;;;29.70;77.40;;;;;;5122089;27;20027;-63
2022/06/09 09:19:18;;;;;;;1.20;1.00;;;29.70;80.70;;;;;;5125989;27;20019;-63
2022/06/09 09:21:59;;;;;;;1.60;0.88;;;29.50;77.00;;;;;;5128112;27;20043;-64
2022/06/09 09:25:08;;;;;;;2.13;1.50;;;29.50;76.40;;;;;;5119243;27;20035;-62
2022/06/09 09:27:55;;;;;;;1.20;1.10;;;28.70;76.00;;;;;;5124855;27;20082;-66
2022/06/09 09:30:29;;;;;;;2.90;1.20;;;29.00;79.00;;;;;;5090240;27;20039;-63
2022/06/09 09:32:56;;;;;;;2.08;1.33;;;29.50;74.40;;;;;;5120689;27;20027;-66
2022/06/09 09:35:27;;;;;;;2.83;1.80;;;29.80;75.50;;;;;;5121578;27;20118;-60
2022/06/09 09:37:55;;;;;;;1.60;1.25;;;30.30;73.90;;;;;;5117136;27;20032;-60
2022/06/09 09:40:43;;;;;;;1.98;1.40;;;30.20;75.20;;;;;;5130599;27;20019;-61
2022/06/09 09:43:21;;;;;;;1.70;1.60;;;31.40;75.50;;;;;;5111150;28;20020;-60
2022/06/09 09:45:51;;;;;;;1.75;1.30;;;32.20;67.40;;;;;;5111465;28;20024;-62
2022/06/09 09:48:16;;;;;;;1.92;1.20;;;32.40;67.20;;;;;;5112241;28;20608;-64
2022/06/09 09:51:03;;;;;;;3.20;1.30;;;33.10;67.50;;;;;;5112906;28;20034;-58
2022/06/09 09:53:29;;;;;;;2.15;1.40;;;33.60;61.20;;;;;;5128462;27;20034;-62
2022/06/09 09:56:01;;;;;;;2.45;1.10;;;33.50;65.70;;;;;;5131218;27;20084;-61
2022/06/09 09:58:44;;;;;;;2.20;1.07;;;34.00;60.50;;;;;;5131600;27;20015;-65
2022/06/09 10:01:22;;;;;;;1.92;1.60;;;33.90;59.40;;;;;;5133803;27;20065;-70
2022/06/09 10:09:37;;;;;;;1.17;1.08;;;31.90;59.60;;;;;;5132843;27;20095;-69
2022/06/09 10:12:10;;;;;;;2.08;1.25;;;32.00;67.40;;;;;;5135682;27;20037;-68
2022/06/09 10:14:44;;;;;;;1.23;1.13;;;32.20;61.40;;;;;;5131560;27;20015;-64
2022/06/09 10:17:32;;;;;;;1.45;0.95;;;32.20;58.90;;;;;;5140741;27;20027;-67
2022/06/09 10:20:06;;;;;;;1.10;1.00;;;31.70;60.00;;;;;;5143823;27;20087;-68
2022/06/09 10:22:35;;;;;;;1.10;1.00;;;31.70;64.40;;;;;;5116089;27;20427;-70
2022/06/09 10:25:23;;;;;;;1.13;1.02;;;32.20;64.00;;;;;;5114089;28;20027;-70
2022/06/09 10:27:55;;;;;;;1.10;1.00;;;32.70;58.90;;;;;;5131687;28;20034;-70
2022/06/09 10:30:35;;;;;;;3.03;1.30;;;32.80;60.90;;;;;;5129295;28;20023;-70
2022/06/09 10:33:29;;;;;;;1.15;1.05;;;32.80;59.50;;;;;;5121556;28;20019;-67
2022/06/09 10:36:05;;;;;;;1.10;0.90;;;32.40;58.60;;;;;;5110484;28;20824;-68
2022/06/09 10:38:39;;;;;;;1.52;1.15;;;31.80;62.30;;;;;;5111160;28;20381;-67
2022/06/09 10:41:12;;;;;;;2.95;1.50;;;31.50;62.30;;;;;;5120224;28;20024;-67
2022/06/09 10:43:48;;;;;;;1.15;1.05;;;31.40;62.40;;;;;;5126138;28;20346;-66
2022/06/09 10:46:19;;;;;;;1.33;1.23;;;31.20;62.50;;;;;;5116928;27;20028;-68
2022/06/09 10:55:40;;;;;;;1.65;1.25;;;31.50;63.00;;;;;;5115092;28;20089;-65
2022/06/09 10:58:15;;;;;;;1.30;1.20;;;31.60;63.00;;;;;;5052633;28;20045;-64
2022/06/09 11:00:47;;;;;;;1.63;1.50;;;31.70;60.40;;;;;;5052323;28;20053;-68
2022/06/09 11:03:20;;;;;;;1.40;1.30;;;31.80;62.10;;;;;;5088837;28;20039;-67
2022/06/09 11:06:23;;;;;;;1.65;1.55;;;31.50;60.00;;;;;;5114770;28;20036;-66
2022/06/09 11:09:01;;;;;;;1.77;1.40;;;31.30;59.50;;;;;;5130483;27;20031;-69
2022/06/09 11:11:38;;;;;;;1.98;1.30;;;31.30;61.60;;;;;;5135690;27;20024;-70
2022/06/09 11:14:28;;;;;;;2.60;1.88;;;31.30;62.70;;;;;;5136585;27;20033;-67
2022/06/09 11:17:03;;;;;;;1.70;1.38;;;31.70;62.90;;;;;;5135199;27;20028;-69
2022/06/09 11:20:00;;;;;;;1.55;1.27;;;32.20;62.70;;;;;;5132493;27;20497;-70
2022/06/09 11:23:02;;;;;;;1.50;1.40;;;32.10;62.10;;;;;;5131353;27;20035;-70
2022/06/09 11:25:48;;;;;;;1.38;1.27;;;32.20;58.20;;;;;;5132598;27;20019;-67
2022/06/09 11:28:52;;;;;;;1.30;1.17;;;31.90;59.60;;;;;;5131225;27;20015;-66
2022/06/09 11:31:18;;;;;;;1.50;1.33;;;31.50;59.60;;;;;;5133310;27;20102;-66
2022/06/09 11:33:55;;;;;;;3.45;1.20;;;31.60;60.50;;;;;;5133992;27;20107;-68
2022/06/09 11:36:41;;;;;;;1.40;1.20;;;32.20;59.00;;;;;;5135679;27;20099;-67
2022/06/09 11:39:26;;;;;;;1.13;1.02;;;32.70;57.90;;;;;;5137003;27;20087;-63
2022/06/09 11:42:29;;;;;;;1.85;1.30;;;32.50;57.00;;;;;;5136740;27;20102;-67
2022/06/09 11:44:58;;;;;;;1.40;1.30;;;32.30;58.80;;;;;;5123681;27;20039;-65
2022/06/09 11:47:33;;;;;;;1.40;1.20;;;32.50;57.40;;;;;;5136801;27;20037;-67
2022/06/09 11:50:04;;;;;;;0.95;0.95;;;32.20;56.60;;;;;;5133404;27;20085;-67
2022/06/09 11:52:41;;;;;;;1.13;1.00;;;31.90;56.90;;;;;;5125479;27;20504;-65
2022/06/09 11:58:34;;;;;;;1.98;1.25;;;31.20;58.80;;;;;;5121634;27;20051;-70
2022/06/09 12:01:39;;;;;;;1.63;1.15;;;30.60;61.00;;;;;;5128135;27;20023;-64
2022/06/09 12:04:26;;;;;;;1.63;1.20;;;30.30;61.00;;;;;;5072243;27;20397;-66
2022/06/09 12:07:15;;;;;;;2.67;1.27;;;30.10;63.20;;;;;;5125296;27;20034;-67
2022/06/09 12:10:14;;;;;;;1.30;1.20;;;29.90;61.90;;;;;;5129156;27;20019;-66
2022/06/09 12:12:44;;;;;;;1.20;1.05;;;29.30;62.70;;;;;;5131611;27;20382;-64
2022/06/09 12:15:31;;;;;;;2.28;1.15;;;29.20;62.90;;;;;;5131846;27;20022;-69
2022/06/09 12:18:28;;;;;;;1.30;1.10;;;29.20;61.40;;;;;;5131673;27;20216;-66
2022/06/09 12:20:59;;;;;;;1.73;1.27;;;29.00;63.80;;;;;;5131644;27;20030;-68
2022/06/09 12:24:20;;;;;;;1.30;1.10;;;29.00;64.50;;;;;;5131555;27;20661;-66
2022/06/09 12:26:55;;;;;;;1.30;1.20;;;28.80;66.20;;;;;;5132607;27;20764;-65
2022/06/09 12:29:20;;;;;;;1.40;1.20;;;28.50;66.10;;;;;;5128679;27;20377;-68
2022/06/09 12:32:08;;;;;;;1.33;0.75;;;28.50;65.00;;;;;;5132552;27;20023;-65
2022/06/09 12:34:49;;;;;;;1.10;1.00;;;28.50;64.40;;;;;;5114669;27;20025;-65
2022/06/09 12:37:50;;;;;;;1.00;0.90;;;28.60;64.80;;;;;;5134277;27;20067;-63
2022/06/09 12:40:22;;;;;;;2.85;1.70;;;28.50;66.80;;;;;;5134132;27;20160;-66
2022/06/09 12:42:57;;;;;;;3.25;1.27;;;28.30;67.20;;;;;;5134240;27;20019;-68
2022/06/09 12:45:40;;;;;;;3.28;1.00;;;27.80;64.60;;;;;;5134543;27;20027;-66
2022/06/09 12:48:11;;;;;;;1.38;0.50;;;26.50;60.10;;;;;;5134744;27;20110;-65
2022/06/09 12:50:45;;;;;;;3.40;0.40;;;25.90;59.30;;;;;;5135467;27;20011;-65
2022/06/09 12:53:35;;;;;;;1.30;0.43;;;25.20;60.30;;;;;;5135036;27;20015;-66
2022/06/09 12:56:22;;;;;;;2.55;0.52;;;25.00;61.20;;;;;;5135768;27;20122;-64
2022/06/09 12:58:50;;;;;;;2.80;0.50;;;24.90;62.10;;;;;;5092643;27;20039;-65
2022/06/09 13:01:23;;;;;;;15.77;1.98;;;25.00;63.40;;;;;;5133717;27;20026;-68
2022/06/09 13:04:04;;;;;;;9.98;1.52;;;22.70;99.90;;;;;;5133600;27;20550;-71
2022/06/09 13:06:35;;;;;;;5.30;1.02;;;21.10;99.90;;;;;;5133929;27;20072;-68
2022/06/09 13:09:13;;;;;;;5.75;1.00;;;20.30;99.90;;;;;;5133776;27;20064;-65
2022/06/09 13:14:45;;;;;;;7.82;1.20;;;20.50;99.90;;;;;;5135684;27;20435;-68
2022/06/09 13:17:26;;;;;;;1.80;0.80;;;20.30;99.90;;;;;;5135456;27;20022;-66
2022/06/09 13:20:05;;;;;;;0.93;0.70;;;20.50;99.90;;;;;;5135294;27;20034;-67
2022/06/09 13:22:32;;;;;;;0.68;0.60;;;20.00;99.90;;;;;;5135385;27;20026;-65
2022/06/09 13:24:58;;;;;;;1.98;0.70;;;19.80;99.90;;;;;;5135152;27;20023;-70
2022/06/09 13:27:28;;;;;;;0.82;0.70;;;20.10;99.90;;;;;;5135059;27;20034;-66
2022/06/09 13:30:28;;;;;;;0.60;0.60;;;20.10;99.90;;;;;;5135338;27;20024;-66
2022/06/09 13:32:54;;;;;;;1.35;0.70;;;20.20;99.90;;;;;;5134884;27;20031;-68
2022/06/09 13:35:35;;;;;;;1.55;0.80;;;20.30;99.90;;;;;;5135074;27;20019;-67
2022/06/09 13:38:17;;;;;;;1.38;0.80;;;20.20;99.90;;;;;;5134959;27;20019;-68
2022/06/09 13:40:49;;;;;;;2.83;1.00;;;19.80;99.90;;;;;;5134977;27;20031;-66
2022/06/09 13:43:37;;;;;;;1.80;1.17;;;19.40;99.90;;;;;;5135090;27;20427;-67